KCAD/CAD METAR and TAF weather

Enter ICAO airport designator
Station Type Date Time Source
KCAD METAR 2022/12/08 13:15 UTC NOAA

KCAD 081315Z AUTO 01003KT 10SM OVC011 M05/M07 A3039 RMK AO2 T10491067


Station Type Date Time Source
KCAD Decoded METAR 2022/12/08 13:15 UTC NOAA

Cadillac / Wexford County, MI, United States (KCAD) 44-17N 085-25W
Dec 08, 2022 - 08:15 AM EST / 2022.12.08 1315 UTC
Wind: from the N (010 degrees) at 3 MPH (3 KT):0
Visibility: 10 mile(s):0
Sky conditions: overcast
Temperature: 23.2 F (-4.9 C)
Dew Point: 19.9 F (-6.7 C)
Relative Humidity: 87%
Pressure (altimeter): 30.39 in. Hg (1029 hPa)
ob: KCAD 081315Z AUTO 01003KT 10SM OVC011 M05/M07 A3039 RMK AO2 T10491067
cycle: 13

Station Type Date Time Source
KCAD TAF UTC NOAA

Error!

Example: see airport list